This is the latest recevied weather packets stored in our database for station/object HS1AL-1. If no packets are shown the sender has not sent any weather packets the latest 1 day(s).
| Time | Temp. | Humidity | Pressure | Rain* | Wind** | Luminosity | Snow |
|---|---|---|---|---|---|---|---|
| 1778084152 | 36.67° C | 47% | 1006 hPa | - | - | 0 W/m² | - |
| 1778082296 | 37.22° C | 48% | 1006 hPa | - | - | 0 W/m² | - |
| 1778081369 | 37.22° C | 48% | 1006 hPa | - | - | 0 W/m² | - |
| 1778072211 | 38.33° C | 43% | 1005 hPa | - | - | 0 W/m² | - |
| 1778071287 | 38.33° C | 43% | 1004 hPa | - | - | 0 W/m² | - |
| 1778069428 | 38.33° C | 42% | 1004 hPa | - | - | 0 W/m² | - |
| 1778064786 | 40° C | 40% | 1003 hPa | - | - | 0 W/m² | - |
| 1778061995 | 40° C | 39% | 1003 hPa | - | - | 0 W/m² | - |
| 1778059204 | 40.56° C | 37% | 1003 hPa | - | - | 0 W/m² | - |
| 1778058276 | 40.56° C | 35% | 1003 hPa | - | - | 0 W/m² | - |
| 1778057349 | 40.56° C | 36% | 1003 hPa | - | - | 0 W/m² | - |
| 1778055495 | 40° C | 37% | 1004 hPa | - | - | 0 W/m² | - |
| 1778054568 | 40° C | 36% | 1004 hPa | - | - | 0 W/m² | - |
| 1778053637 | 40.56° C | 38% | 1004 hPa | - | - | 0 W/m² | - |
| 1778052709 | 41.11° C | 36% | 1004 hPa | - | - | 0 W/m² | - |
| 1778049927 | 40° C | 38% | 1005 hPa | - | - | 0 W/m² | - |
| 1778048070 | 39.44° C | 38% | 1005 hPa | - | - | 0 W/m² | - |
| 1778046207 | 39.44° C | 38% | 1006 hPa | - | - | 0 W/m² | - |
| 1778045275 | 38.89° C | 40% | 1006 hPa | - | - | 0 W/m² | - |
| 1778044346 | 38.89° C | 41% | 1007 hPa | - | - | 0 W/m² | - |
| 1778043417 | 38.89° C | 41% | 1007 hPa | - | - | 0 W/m² | - |
| 1778042494 | 38.33° C | 42% | 1007 hPa | - | - | 0 W/m² | - |
| 1778041563 | 38.33° C | 41% | 1007 hPa | - | - | 0 W/m² | - |
| 1778040634 | 37.78° C | 43% | 1007 hPa | - | - | 0 W/m² | - |
| 1778039711 | 37.78° C | 43% | 1007 hPa | - | - | 0 W/m² | - |
* Rain since midnight (hover to see other rain measurements)
** Current wind speed in m/s (hover to see current wind gust speed)